Portmarnock, Ireland
Current Conditions -  °F | °C
As of 5:30 AM on Thursday 23 Oct 2014 (Local Time) from EIDW Reporting Station
Broken Clouds Broken Clouds  
Wind Chill: 55°   Ceiling: 10000
Heat Index: 55°   Visibility: 6mi
Dew Point: 52°   Wind: 17mph
Humidity: 88%   Direction: 240°WSW
Pressure: 29.91"   Gusts: NA
Location:  53.42°N, 6.14°W
Report Text: EIDW 230530Z 24015KT 9999 FEW012 SCT027 BKN100 13/11 Q1013 NOSIG
Loading
Personal Weather Stations






























Interactive Weather Map
Tropical Storm Tracking
New forecast layout! Learn more

10-Day Weather Forecast

Advertisements
Track Severe Weather on mobile